createdAt,value
2023-02-04T00:27:59.078Z,506.00
2023-02-04T02:09:58.617Z,504.00
2023-02-04T02:25:58.141Z,505.00
2023-02-04T02:26:58.182Z,509.00
2023-02-04T02:27:58.247Z,513.00
2023-02-04T02:28:58.248Z,505.00
2023-02-04T02:29:58.288Z,505.00
2023-02-04T02:30:58.448Z,508.00
2023-02-04T02:31:58.391Z,509.00
2023-02-04T02:32:58.392Z,507.00
2023-02-04T02:33:58.437Z,508.00
2023-02-04T02:34:58.466Z,505.00
2023-02-04T02:35:58.474Z,509.00
2023-02-04T02:36:58.526Z,507.00
2023-02-04T02:37:58.568Z,507.00
2023-02-04T02:38:58.616Z,503.00
2023-02-04T02:39:58.650Z,506.00
2023-02-04T02:40:58.670Z,503.00
2023-02-04T02:41:58.702Z,506.00
2023-02-04T02:42:58.742Z,502.00
2023-02-04T02:43:58.805Z,511.00
2023-02-04T02:44:58.831Z,505.00
2023-02-04T02:45:59.100Z,506.00
2023-02-04T02:46:58.901Z,509.00
2023-02-04T02:47:59.019Z,509.00
2023-02-04T02:48:58.970Z,507.00
2023-02-04T02:49:59.026Z,505.00
2023-02-04T02:50:59.073Z,503.00
2023-02-04T02:51:59.112Z,507.00
2023-02-04T02:52:59.157Z,504.00
2023-02-04T02:53:59.202Z,507.00
2023-02-04T02:54:59.239Z,507.00
2023-02-04T02:55:59.276Z,509.00
2023-02-04T02:56:59.437Z,507.00
2023-02-04T02:57:59.379Z,507.00
2023-02-04T02:58:59.423Z,502.00
2023-02-04T02:59:59.470Z,506.00
2023-02-04T03:00:59.542Z,510.00
2023-02-04T03:01:59.574Z,505.00
2023-02-04T03:02:59.610Z,503.00
2023-02-04T03:03:59.614Z,506.00
2023-02-04T03:04:59.621Z,503.00
2023-02-04T03:05:59.618Z,504.00
2023-02-04T03:06:59.631Z,505.00
2023-02-04T03:08:00.556Z,504.00
2023-02-04T03:08:59.671Z,511.00
2023-02-04T03:09:59.697Z,505.00
2023-02-04T03:10:59.745Z,510.00
2023-02-04T03:11:59.779Z,506.00
2023-02-04T03:12:59.839Z,503.00
2023-02-04T03:13:59.845Z,504.00
2023-02-04T03:14:59.873Z,506.00
2023-02-04T03:15:59.986Z,512.00
2023-02-04T03:16:59.941Z,503.00
2023-02-04T03:17:59.966Z,503.00
2023-02-04T03:19:00.009Z,504.00
2023-02-04T03:20:00.034Z,505.00
2023-02-04T03:21:00.043Z,506.00
2023-02-04T03:22:00.565Z,512.00
2023-02-04T03:23:00.061Z,506.00
2023-02-04T03:24:00.101Z,507.00
2023-02-04T03:25:01.059Z,504.00
2023-02-04T03:26:00.108Z,504.00
2023-02-04T03:27:00.138Z,508.00
2023-02-04T03:28:00.280Z,505.00
2023-02-04T03:29:00.134Z,509.00
2023-02-04T03:30:00.166Z,509.00
2023-02-04T03:31:00.324Z,509.00
2023-02-04T03:32:00.463Z,514.00
2023-02-04T03:33:00.264Z,510.00
2023-02-04T03:34:00.310Z,508.00
2023-02-04T03:35:00.325Z,504.00
2023-02-04T03:36:00.350Z,506.00
2023-02-04T03:37:00.350Z,512.00
2023-02-04T03:38:00.380Z,507.00
2023-02-04T03:39:01.065Z,502.00
2023-02-04T03:40:00.397Z,506.00
2023-02-04T03:41:00.402Z,510.00
2023-02-04T03:42:00.447Z,505.00
2023-02-04T03:43:00.435Z,501.00
2023-02-04T03:44:00.444Z,507.00
2023-02-04T03:45:00.455Z,501.00
2023-02-04T03:46:00.478Z,506.00
2023-02-04T03:47:00.553Z,507.00
2023-02-04T03:48:00.522Z,505.00
2023-02-04T03:49:01.072Z,509.00
2023-02-04T03:50:00.626Z,502.00
2023-02-04T03:51:00.615Z,504.00
2023-02-04T03:52:00.617Z,502.00
2023-02-04T03:53:00.627Z,504.00
2023-02-04T03:54:00.642Z,502.00
2023-02-04T05:55:01.262Z,508.00
2023-02-04T05:56:01.266Z,512.00
2023-02-04T05:57:01.195Z,508.00
2023-02-04T05:58:01.201Z,506.00
2023-02-04T05:59:01.189Z,511.00
2023-02-04T06:00:01.214Z,507.00
2023-02-04T06:01:01.200Z,514.00
2023-02-04T06:02:01.201Z,512.00
2023-02-04T06:03:01.218Z,507.00
2023-02-04T06:04:01.233Z,503.00
2023-02-04T06:05:01.194Z,504.00
2023-02-04T06:06:01.198Z,510.00
2023-02-04T06:07:01.206Z,504.00
2023-02-04T06:08:01.226Z,511.00
2023-02-04T06:09:01.198Z,507.00
2023-02-04T06:10:01.210Z,505.00
2023-02-04T06:11:01.221Z,511.00
2023-02-04T06:12:01.210Z,509.00
2023-02-04T06:13:02.140Z,508.00
2023-02-04T06:14:01.216Z,507.00
2023-02-04T06:15:01.247Z,505.00
2023-02-04T06:16:01.296Z,508.00
2023-02-04T06:17:01.219Z,505.00
2023-02-04T06:18:01.208Z,506.00
2023-02-04T06:19:01.218Z,501.00
2023-02-04T06:20:01.205Z,503.00
2023-02-04T06:21:01.219Z,511.00
2023-02-04T06:22:01.211Z,507.00
2023-02-04T06:23:01.208Z,500.00
2023-02-04T06:24:01.226Z,509.00
2023-02-04T06:25:01.220Z,506.00
2023-02-04T06:26:01.233Z,513.00
2023-02-04T06:27:01.242Z,505.00
2023-02-04T06:28:01.295Z,514.00
2023-02-04T06:29:01.249Z,507.00
2023-02-04T06:30:01.241Z,505.00
2023-02-04T06:31:01.324Z,504.00
2023-02-04T06:32:01.378Z,508.00
2023-02-04T06:33:01.267Z,511.00
2023-02-04T06:34:01.324Z,503.00
2023-02-04T06:35:01.313Z,504.00
2023-02-04T06:36:01.272Z,506.00
2023-02-04T06:37:01.276Z,507.00
2023-02-04T06:38:01.283Z,512.00
2023-02-04T06:39:01.296Z,506.00
2023-02-04T06:40:01.304Z,510.00
2023-02-04T06:41:02.131Z,507.00
2023-02-04T06:42:01.289Z,504.00
2023-02-04T06:43:02.008Z,510.00
2023-02-04T06:44:01.307Z,506.00
2023-02-04T06:45:01.299Z,508.00
2023-02-04T06:46:01.384Z,508.00
2023-02-04T06:47:01.326Z,503.00
2023-02-04T06:48:01.330Z,504.00
2023-02-04T06:49:02.127Z,505.00
2023-02-04T06:50:01.321Z,507.00
2023-02-04T06:51:01.322Z,506.00
2023-02-04T06:52:01.324Z,508.00
2023-02-04T06:53:01.342Z,501.00
2023-02-04T06:54:01.343Z,500.00
2023-02-04T06:55:02.127Z,511.00
2023-02-04T06:56:01.344Z,507.00
2023-02-04T06:57:01.345Z,509.00
2023-02-04T06:58:01.343Z,506.00
2023-02-04T06:59:03.326Z,507.00
2023-02-04T07:00:01.351Z,510.00
2023-02-04T07:01:01.388Z,506.00
2023-02-04T07:02:01.371Z,508.00
2023-02-04T07:03:01.370Z,510.00
2023-02-04T07:04:01.649Z,512.00
2023-02-04T07:05:01.377Z,507.00
2023-02-04T07:06:01.366Z,509.00
2023-02-04T07:07:01.368Z,510.00
2023-02-04T07:08:01.430Z,510.00
2023-02-04T07:09:01.380Z,506.00
2023-02-04T07:10:01.365Z,507.00
2023-02-04T07:11:01.363Z,503.00
2023-02-04T07:12:01.359Z,510.00
2023-02-04T07:13:01.368Z,501.00
2023-02-04T07:14:01.379Z,509.00
2023-02-04T07:15:01.375Z,507.00
2023-02-04T07:16:01.429Z,503.00
2023-02-04T07:17:01.369Z,505.00
2023-02-04T07:18:01.363Z,500.00
2023-02-04T07:19:01.358Z,502.00
2023-02-04T07:20:01.358Z,501.00
2023-02-04T07:21:01.455Z,510.00
2023-02-04T07:22:01.369Z,508.00
2023-02-04T07:23:01.361Z,511.00
2023-02-04T07:24:01.358Z,503.00
2023-02-04T07:25:01.354Z,503.00
2023-02-04T07:26:01.368Z,512.00
2023-02-04T07:27:02.679Z,508.00
2023-02-04T07:28:01.397Z,500.00
2023-02-04T07:29:01.355Z,501.00
2023-02-04T07:30:01.347Z,503.00
2023-02-04T07:31:01.476Z,508.00
2023-02-04T07:32:01.505Z,508.00
2023-02-04T07:33:01.354Z,505.00
2023-02-04T07:34:01.362Z,511.00
2023-02-04T07:35:01.361Z,510.00
2023-02-04T07:36:01.350Z,504.00
2023-02-04T07:37:01.379Z,506.00
2023-02-04T07:38:01.363Z,507.00
2023-02-04T07:39:01.362Z,509.00
2023-02-04T07:40:01.365Z,502.00
2023-02-04T07:41:01.354Z,508.00
2023-02-04T07:42:01.350Z,510.00
2023-02-04T07:43:01.346Z,503.00
2023-02-04T07:44:01.352Z,513.00
2023-02-04T07:45:01.348Z,508.00
2023-02-04T07:46:01.369Z,506.00
2023-02-04T07:47:01.346Z,508.00
2023-02-04T07:48:01.353Z,508.00
2023-02-04T07:49:01.346Z,514.00
2023-02-04T11:17:08.137Z,551.00
2023-02-04T11:18:08.175Z,555.00
2023-02-04T11:19:08.225Z,552.00
2023-02-04T11:20:08.272Z,551.00
2023-02-04T11:21:08.320Z,550.00
2023-02-04T12:15:10.955Z,506.00
2023-02-04T12:16:10.987Z,509.00
2023-02-04T12:17:10.985Z,504.00
2023-02-04T12:18:10.980Z,501.00
2023-02-04T12:19:10.970Z,501.00
2023-02-04T12:20:11.062Z,507.00
2023-02-04T12:21:11.069Z,500.00
2023-02-04T12:22:11.004Z,500.00
2023-02-04T12:23:11.004Z,506.00
2023-02-04T12:24:11.032Z,503.00
2023-02-04T12:25:11.069Z,506.00
2023-02-04T12:26:11.079Z,505.00
2023-02-04T12:27:11.079Z,506.00
2023-02-04T12:28:11.153Z,502.00
2023-02-04T12:29:11.086Z,512.00
2023-02-04T12:30:11.256Z,514.00
2023-02-04T12:31:11.385Z,512.00
2023-02-04T15:19:18.105Z,514.00
2023-02-04T15:20:18.114Z,514.00
2023-02-04T15:21:18.126Z,514.00
2023-02-04T15:22:18.129Z,515.00
2023-02-04T15:23:18.129Z,519.00
2023-02-04T15:24:18.155Z,517.00
2023-02-04T15:25:18.169Z,516.00
2023-02-04T15:26:18.177Z,519.00
2023-02-04T15:27:18.193Z,515.00
2023-02-04T15:28:18.255Z,518.00
2023-02-04T15:29:18.241Z,514.00
2023-02-04T15:30:18.249Z,514.00
2023-02-04T15:31:18.390Z,516.00
2023-02-04T15:32:18.267Z,514.00
2023-02-04T15:33:18.273Z,515.00
2023-02-04T15:34:18.286Z,520.00
2023-02-04T15:35:18.840Z,515.00
2023-02-04T15:36:18.318Z,514.00
2023-02-04T15:37:18.324Z,516.00
2023-02-04T15:38:18.408Z,512.00
2023-02-04T15:39:18.344Z,513.00
2023-02-04T15:42:18.342Z,514.00
2023-02-04T15:43:18.335Z,517.00
2023-02-04T15:44:18.336Z,508.00
2023-02-04T15:45:18.363Z,513.00
2023-02-04T15:46:18.392Z,515.00
2023-02-04T15:47:18.338Z,513.00
2023-02-04T15:48:18.325Z,513.00
2023-02-04T15:49:18.329Z,516.00
2023-02-04T15:50:18.337Z,516.00
2023-02-04T15:51:18.335Z,510.00
2023-02-04T15:52:24.446Z,512.00
2023-02-04T15:53:19.350Z,513.00
2023-02-04T15:54:18.334Z,514.00
2023-02-04T15:55:18.319Z,515.00
2023-02-04T15:56:18.314Z,509.00
2023-02-04T15:57:18.304Z,511.00
2023-02-04T15:58:18.312Z,513.00
2023-02-04T15:59:18.283Z,514.00
2023-02-04T16:00:18.278Z,513.00
2023-02-04T16:01:18.357Z,519.00
2023-02-04T16:02:18.883Z,517.00
2023-02-04T16:03:18.315Z,513.00
2023-02-04T16:04:20.669Z,512.00
2023-02-04T16:05:18.390Z,519.00
2023-02-04T16:06:18.390Z,519.00
2023-02-04T16:07:18.380Z,521.00
2023-02-04T16:08:18.376Z,517.00
2023-02-04T16:09:18.382Z,518.00
2023-02-04T16:10:18.538Z,515.00
2023-02-04T16:11:18.396Z,518.00
2023-02-04T16:12:18.482Z,518.00
2023-02-04T16:13:18.386Z,519.00
2023-02-04T16:14:18.401Z,520.00
2023-02-04T16:15:18.401Z,516.00
2023-02-04T16:16:18.546Z,516.00
2023-02-04T16:17:19.185Z,523.00
2023-02-04T16:18:18.415Z,521.00
2023-02-04T16:19:19.351Z,516.00
2023-02-04T16:20:18.400Z,515.00
2023-02-04T16:21:19.416Z,521.00
2023-02-04T16:22:18.420Z,516.00
2023-02-04T16:23:18.407Z,517.00
2023-02-04T16:24:18.438Z,517.00
2023-02-04T16:25:18.418Z,524.00
2023-02-04T16:26:18.425Z,518.00
2023-02-04T16:27:18.432Z,514.00
2023-02-04T16:28:18.639Z,517.00
2023-02-04T16:29:18.442Z,513.00
2023-02-04T16:30:18.473Z,513.00
2023-02-04T16:31:18.585Z,517.00
2023-02-04T16:40:18.528Z,517.00
2023-02-04T16:41:18.530Z,518.00
2023-02-04T16:42:18.537Z,517.00
2023-02-04T16:43:18.549Z,514.00
2023-02-04T16:44:18.599Z,515.00
2023-02-04T16:45:18.560Z,513.00
2023-02-04T16:46:18.585Z,515.00
2023-02-04T16:47:18.574Z,517.00
2023-02-04T16:48:18.596Z,513.00
2023-02-04T16:49:18.586Z,520.00
2023-02-04T16:50:18.590Z,514.00
2023-02-04T16:51:18.608Z,518.00
2023-02-04T16:52:18.631Z,517.00
2023-02-04T16:53:18.639Z,516.00
2023-02-04T16:54:18.641Z,516.00
2023-02-04T16:55:18.654Z,513.00
2023-02-04T16:56:18.661Z,514.00
2023-02-04T16:57:18.694Z,513.00
2023-02-04T16:58:18.685Z,516.00
2023-02-04T16:59:18.686Z,519.00
2023-02-04T17:00:18.714Z,511.00
2023-02-04T17:01:18.730Z,522.00
2023-02-04T17:02:18.727Z,516.00
2023-02-04T17:03:18.734Z,522.00
2023-02-04T17:04:18.736Z,518.00
2023-02-04T17:05:18.742Z,516.00
2023-02-04T17:06:18.756Z,520.00
2023-02-04T17:07:18.765Z,521.00
2023-02-04T17:08:18.762Z,516.00
2023-02-04T17:09:18.789Z,517.00
2023-02-04T17:10:18.781Z,521.00
2023-02-04T17:11:18.801Z,520.00
2023-02-04T17:12:18.822Z,524.00
2023-02-04T17:13:18.840Z,519.00
2023-02-04T17:14:18.839Z,517.00
2023-02-04T17:15:18.851Z,522.00
2023-02-04T17:16:18.894Z,518.00
2023-02-04T17:17:18.883Z,519.00
2023-02-04T17:18:18.878Z,517.00
2023-02-04T17:19:18.890Z,514.00
2023-02-04T17:20:18.900Z,516.00
2023-02-04T17:21:18.923Z,518.00
2023-02-04T17:22:18.922Z,515.00
2023-02-04T17:23:18.928Z,518.00
2023-02-04T17:24:18.936Z,520.00
2023-02-04T17:25:18.949Z,515.00
2023-02-04T17:26:18.951Z,514.00
2023-02-04T17:27:18.968Z,510.00
2023-02-04T17:28:19.010Z,516.00
2023-02-04T17:29:18.984Z,514.00
2023-02-04T17:30:19.877Z,511.00
2023-02-04T17:31:19.002Z,515.00
2023-02-04T17:32:19.002Z,516.00
2023-02-04T17:33:19.034Z,512.00
2023-02-04T17:34:19.063Z,513.00
2023-02-04T17:35:19.052Z,512.00
2023-02-04T17:36:19.064Z,508.00
2023-02-04T17:37:19.074Z,515.00
2023-02-04T17:38:19.081Z,516.00
2023-02-04T17:39:19.099Z,511.00
2023-02-04T17:40:19.122Z,513.00
2023-02-04T17:41:19.139Z,515.00
2023-02-04T17:42:19.182Z,516.00
2023-02-04T17:43:19.187Z,512.00
2023-02-04T17:44:19.176Z,516.00
2023-02-04T17:45:19.178Z,511.00
2023-02-04T17:46:19.243Z,516.00
2023-02-04T17:47:19.214Z,518.00
2023-02-04T17:48:19.222Z,514.00
2023-02-04T17:49:19.253Z,518.00
2023-02-04T17:50:19.247Z,520.00
2023-02-04T17:51:19.253Z,515.00
2023-02-04T17:52:19.273Z,514.00
2023-02-04T17:53:19.275Z,521.00
2023-02-04T17:54:19.288Z,514.00
2023-02-04T17:55:19.303Z,512.00
2023-02-04T17:56:19.306Z,512.00
2023-02-04T17:57:19.328Z,515.00
2023-02-04T17:58:19.335Z,512.00
2023-02-04T17:59:19.347Z,514.00
2023-02-04T18:00:19.363Z,516.00
2023-02-04T18:01:19.563Z,518.00
2023-02-04T18:02:19.486Z,516.00
2023-02-04T18:03:19.485Z,512.00
2023-02-04T18:04:19.420Z,508.00
2023-02-04T18:05:19.433Z,511.00
2023-02-04T18:06:19.442Z,517.00
2023-02-04T18:07:19.461Z,517.00
2023-02-04T18:08:19.477Z,515.00
2023-02-04T18:09:19.482Z,517.00
2023-02-04T18:10:19.494Z,512.00
2023-02-04T18:11:19.507Z,512.00
2023-02-04T18:12:19.524Z,515.00
2023-02-04T18:13:19.528Z,512.00
2023-02-04T18:14:19.635Z,518.00
2023-02-04T18:15:19.570Z,514.00
2023-02-04T18:16:19.592Z,514.00
2023-02-04T18:17:19.579Z,515.00
2023-02-04T18:18:20.393Z,513.00
2023-02-04T18:19:19.604Z,513.00
2023-02-04T18:20:19.645Z,514.00
2023-02-04T18:21:19.612Z,510.00
2023-02-04T18:22:19.638Z,516.00
2023-02-04T18:23:19.650Z,512.00
2023-02-04T18:24:19.645Z,514.00
2023-02-04T18:25:19.673Z,516.00
2023-02-04T18:26:19.671Z,512.00
2023-02-04T18:27:19.675Z,519.00
2023-02-04T18:28:19.734Z,512.00
2023-02-04T18:29:19.720Z,507.00
2023-02-04T18:30:19.800Z,511.00
2023-02-04T18:31:19.820Z,511.00
2023-02-04T18:32:19.734Z,511.00
2023-02-04T18:33:19.747Z,515.00
2023-02-04T18:34:19.764Z,507.00
2023-02-04T18:35:19.763Z,512.00
2023-02-04T18:36:19.796Z,515.00
2023-02-04T18:37:19.793Z,517.00
2023-02-04T18:38:20.390Z,509.00
2023-02-04T18:39:19.959Z,509.00
2023-02-04T18:40:19.926Z,510.00
2023-02-04T18:41:19.874Z,504.00
2023-02-04T18:42:19.882Z,508.00
2023-02-04T18:43:19.898Z,510.00
2023-02-04T18:44:20.894Z,508.00
2023-02-04T18:45:19.936Z,514.00
2023-02-04T18:46:19.995Z,511.00
2023-02-04T18:47:19.965Z,512.00
2023-02-04T18:48:19.995Z,508.00
2023-02-04T18:49:20.017Z,507.00
2023-02-04T18:50:20.038Z,507.00
2023-02-04T18:51:20.044Z,508.00
2023-02-04T18:52:20.058Z,512.00
2023-02-04T18:53:20.905Z,508.00
2023-02-04T18:54:20.983Z,508.00
2023-02-04T18:55:20.123Z,511.00
2023-02-04T18:56:20.141Z,507.00
2023-02-04T18:57:20.152Z,513.00
2023-02-04T18:58:20.153Z,506.00
2023-02-04T18:59:20.168Z,508.00
2023-02-04T19:00:20.193Z,509.00
2023-02-04T19:01:20.243Z,511.00
2023-02-04T19:02:20.247Z,505.00
2023-02-04T19:03:20.229Z,505.00
2023-02-04T19:04:20.236Z,511.00
2023-02-04T19:05:20.260Z,505.00
2023-02-04T19:06:20.272Z,510.00
2023-02-04T19:07:20.289Z,510.00
2023-02-04T19:08:20.311Z,510.00
2023-02-04T19:09:20.898Z,506.00
2023-02-04T19:10:20.338Z,512.00
2023-02-04T19:11:21.719Z,508.00
2023-02-04T19:12:20.521Z,511.00
2023-02-04T19:13:21.458Z,512.00
2023-02-04T19:14:20.583Z,506.00
2023-02-04T19:15:20.572Z,510.00
2023-02-04T19:16:20.600Z,508.00
2023-02-04T19:17:20.616Z,509.00
2023-02-04T19:18:20.637Z,508.00
2023-02-04T19:19:20.644Z,507.00
2023-02-04T19:20:20.662Z,507.00
2023-02-04T19:21:20.674Z,510.00
2023-02-04T19:22:20.737Z,507.00
2023-02-04T19:23:20.724Z,509.00
2023-02-04T19:24:20.770Z,502.00
2023-02-04T19:25:20.780Z,513.00
2023-02-04T19:26:20.780Z,506.00
2023-02-04T19:27:20.909Z,507.00
2023-02-04T19:28:22.824Z,507.00
2023-02-04T19:29:20.813Z,512.00
2023-02-04T19:30:21.843Z,509.00
2023-02-04T19:31:20.873Z,517.00
2023-02-04T19:32:20.809Z,505.00
2023-02-04T19:33:21.404Z,506.00
2023-02-04T19:34:20.767Z,513.00
2023-02-04T19:35:20.771Z,510.00
2023-02-04T19:36:20.762Z,508.00
2023-02-04T19:37:20.758Z,506.00
2023-02-04T19:38:20.753Z,507.00
2023-02-04T19:39:20.798Z,508.00
2023-02-04T19:40:20.744Z,511.00
2023-02-04T19:41:21.405Z,507.00
2023-02-04T19:42:20.727Z,508.00
2023-02-04T19:43:20.840Z,511.00
2023-02-04T19:44:20.719Z,512.00
2023-02-04T19:45:20.710Z,506.00
2023-02-04T19:46:20.754Z,509.00
2023-02-04T19:47:20.729Z,509.00
2023-02-04T19:48:21.416Z,509.00
2023-02-04T19:49:20.704Z,512.00
2023-02-04T19:50:20.681Z,507.00
2023-02-04T19:51:20.680Z,509.00
2023-02-04T19:52:20.661Z,512.00
2023-02-04T19:53:20.696Z,504.00
2023-02-04T19:54:20.732Z,510.00
2023-02-04T19:55:20.632Z,509.00
2023-02-04T19:56:20.638Z,508.00
2023-02-04T19:57:22.385Z,511.00
2023-02-04T19:58:20.635Z,511.00
2023-02-04T19:59:20.609Z,511.00
2023-02-04T20:00:20.818Z,507.00
2023-02-04T20:01:20.682Z,509.00
2023-02-04T20:02:20.618Z,507.00
2023-02-04T20:03:20.582Z,509.00
2023-02-04T20:04:20.576Z,506.00
2023-02-04T20:05:20.576Z,503.00
2023-02-04T20:06:20.565Z,511.00
2023-02-04T20:07:20.558Z,508.00
2023-02-04T20:08:20.563Z,506.00
2023-02-04T20:09:20.542Z,505.00
2023-02-04T20:10:20.605Z,506.00
2023-02-04T20:11:20.538Z,505.00
2023-02-04T20:12:20.527Z,509.00
2023-02-04T20:13:20.522Z,511.00
2023-02-04T20:14:20.532Z,500.00
2023-02-04T20:15:20.511Z,509.00
2023-02-04T20:16:20.607Z,504.00
2023-02-04T20:17:20.550Z,507.00
2023-02-04T20:18:20.469Z,508.00
2023-02-04T20:19:20.476Z,512.00
2023-02-04T20:20:20.470Z,503.00
2023-02-04T20:21:20.463Z,509.00
2023-02-04T20:22:20.453Z,508.00
2023-02-04T20:23:20.473Z,502.00
2023-02-04T20:24:20.454Z,510.00
2023-02-04T20:25:20.471Z,505.00
2023-02-04T20:26:20.489Z,512.00
2023-02-04T20:27:20.534Z,509.00
2023-02-04T20:28:20.545Z,511.00
2023-02-04T20:29:20.558Z,511.00
2023-02-04T20:30:20.581Z,508.00
2023-02-04T20:31:20.652Z,510.00
2023-02-04T20:32:20.602Z,510.00
2023-02-04T20:33:20.692Z,507.00
2023-02-04T20:34:20.639Z,511.00
2023-02-04T20:35:20.691Z,506.00
2023-02-04T20:36:20.670Z,508.00
2023-02-04T20:37:20.706Z,509.00
2023-02-04T20:38:20.706Z,505.00
2023-02-04T20:39:20.789Z,507.00
2023-02-04T20:40:20.770Z,508.00
2023-02-04T20:41:20.845Z,509.00
2023-02-04T20:42:20.771Z,508.00
2023-02-04T20:43:20.783Z,508.00
2023-02-04T20:44:20.801Z,506.00
2023-02-04T20:45:20.823Z,506.00
2023-02-04T20:46:20.881Z,509.00
2023-02-04T20:47:20.879Z,508.00
2023-02-04T20:48:20.878Z,508.00
2023-02-04T20:49:21.171Z,510.00
2023-02-04T20:50:20.935Z,509.00
2023-02-04T20:51:23.039Z,511.00
2023-02-04T20:52:20.958Z,509.00
2023-02-04T20:53:20.988Z,509.00
2023-02-04T20:54:20.997Z,508.00
2023-02-04T20:55:21.014Z,507.00
2023-02-04T20:56:21.034Z,508.00
2023-02-04T20:57:21.050Z,500.00
2023-02-04T20:58:21.078Z,507.00
2023-02-04T20:59:21.116Z,509.00
2023-02-04T21:00:21.089Z,513.00
2023-02-04T21:01:21.149Z,509.00
2023-02-04T21:02:21.131Z,507.00
2023-02-04T21:03:21.160Z,508.00
2023-02-04T21:04:21.210Z,509.00
2023-02-04T21:05:21.863Z,511.00
2023-02-04T21:06:21.222Z,506.00
2023-02-04T21:07:21.453Z,509.00
2023-02-04T21:08:21.238Z,511.00
2023-02-04T21:09:21.254Z,507.00
2023-02-04T21:10:21.945Z,503.00
2023-02-04T21:11:21.307Z,509.00
2023-02-04T21:12:21.329Z,507.00
2023-02-04T21:13:21.339Z,510.00
2023-02-04T21:14:21.445Z,506.00
2023-02-04T21:15:21.359Z,507.00
2023-02-04T21:16:21.455Z,501.00
2023-02-04T21:17:21.398Z,505.00
2023-02-04T21:18:21.411Z,504.00
2023-02-04T21:19:21.421Z,506.00
2023-02-04T21:20:21.442Z,509.00
2023-02-04T21:21:21.470Z,507.00
2023-02-04T21:22:21.476Z,512.00
2023-02-04T21:23:21.494Z,506.00
2023-02-04T21:25:21.535Z,509.00
2023-02-04T21:26:21.629Z,505.00
2023-02-04T21:27:21.632Z,509.00
2023-02-04T21:28:21.657Z,508.00
2023-02-04T21:29:21.595Z,506.00
2023-02-04T21:30:21.624Z,508.00
2023-02-04T21:31:21.727Z,507.00
2023-02-04T21:34:21.710Z,508.00
2023-02-04T21:35:22.456Z,506.00
2023-02-04T21:36:21.719Z,507.00
2023-02-04T21:37:21.734Z,512.00
2023-02-04T21:38:21.737Z,504.00
2023-02-04T21:39:21.768Z,507.00
2023-02-04T21:40:21.780Z,502.00
2023-02-04T21:41:21.788Z,504.00
2023-02-04T21:44:21.823Z,502.00
2023-02-04T21:45:21.877Z,513.00
